Time;durP1;ratioP1;P1;durP2;ratioP2;P2;SDS_P1;SDS_P2;PMS_P1;PMS_P2;Temp;Humidity;BMP_temperature;BMP_pressure;BME280_temperature;BME280_humidity;BME280_pressure;Samples;Min_cycle;Max_cycle;Signal;HPM_P1;HPM_P2
2023/07/29 00:01:44;;;;;;;9.27;8.23;;;;;;;;;;5054747;28;20180;-88
2023/07/29 00:04:10;;;;;;;10.03;9.03;;;;;;;;;;5055118;28;20179;-87
2023/07/29 00:06:41;;;;;;;11.03;9.70;;;;;;;;;;5054940;28;20233;-87
2023/07/29 00:09:07;;;;;;;11.57;10.13;;;;;;;;;;5054737;28;20180;-87
2023/07/29 00:11:35;;;;;;;11.07;9.97;;;;;;;;;;5054220;28;20200;-88
2023/07/29 00:14:05;;;;;;;11.43;10.17;;;;;;;;;;5054549;28;20179;-88
2023/07/29 00:16:31;;;;;;;13.03;10.13;;;;;;;;;;5037518;28;20232;-87
2023/07/29 00:19:04;;;;;;;13.30;11.90;;;;;;;;;;5054494;28;20180;-88
2023/07/29 00:21:33;;;;;;;11.77;10.60;;;;;;;;;;5054005;28;20187;-88
2023/07/29 00:24:00;;;;;;;11.77;10.57;;;;;;;;;;5053817;28;20206;-88
2023/07/29 00:26:35;;;;;;;11.03;9.93;;;;;;;;;;5053934;28;20180;-88
2023/07/29 00:29:06;;;;;;;13.40;10.10;;;;;;;;;;5053840;28;20257;-88
2023/07/29 00:31:38;;;;;;;11.27;10.17;;;;;;;;;;5038519;28;20207;-88
2023/07/29 00:34:17;;;;;;;12.13;10.93;;;;;;;;;;5053727;28;20180;-87
2023/07/29 00:36:45;;;;;;;13.43;11.17;;;;;;;;;;5053604;28;20263;-88
2023/07/29 00:39:19;;;;;;;13.13;11.60;;;;;;;;;;5037234;28;20180;-88
2023/07/29 00:41:45;;;;;;;12.23;10.80;;;;;;;;;;5054338;28;20199;-87
2023/07/29 00:44:18;;;;;;;14.90;10.93;;;;;;;;;;5054142;28;20263;-87
2023/07/29 00:46:45;;;;;;;12.07;10.80;;;;;;;;;;5053550;28;20187;-88
2023/07/29 00:49:14;;;;;;;11.80;10.30;;;;;;;;;;5053613;28;20187;-88
2023/07/29 00:51:42;;;;;;;13.23;10.77;;;;;;;;;;5053584;28;20215;-88
2023/07/29 00:54:08;;;;;;;11.50;10.20;;;;;;;;;;5053456;28;20183;-88
2023/07/29 00:56:40;;;;;;;11.03;9.93;;;;;;;;;;5053516;28;20183;-87
2023/07/29 00:59:14;;;;;;;11.73;10.03;;;;;;;;;;5053170;28;20180;-89
2023/07/29 01:01:40;;;;;;;13.83;10.57;;;;;;;;;;5053175;28;20195;-88
2023/07/29 01:04:09;;;;;;;10.93;9.77;;;;;;;;;;5053362;28;20184;-88
2023/07/29 01:06:57;;;;;;;11.87;10.30;;;;;;;;;;5053161;28;20190;-87
2023/07/29 01:09:31;;;;;;;14.00;10.50;;;;;;;;;;5053013;28;20282;-88
2023/07/29 01:12:20;;;;;;;13.30;10.43;;;;;;;;;;5053035;28;20297;-88
2023/07/29 01:14:55;;;;;;;11.93;10.67;;;;;;;;;;5036482;28;20180;-87
2023/07/29 01:17:50;;;;;;;11.30;9.87;;;;;;;;;;5052766;28;20215;-88
2023/07/29 01:20:28;;;;;;;11.73;10.53;;;;;;;;;;5053619;28;20184;-87
2023/07/29 01:22:55;;;;;;;11.33;10.13;;;;;;;;;;5052620;28;20188;-88
2023/07/29 01:25:21;;;;;;;12.10;10.33;;;;;;;;;;5050744;28;20203;-88
2023/07/29 01:27:47;;;;;;;14.93;10.20;;;;;;;;;;5045900;28;20196;-88
2023/07/29 01:30:16;;;;;;;12.30;11.07;;;;;;;;;;5053405;28;20191;-88
2023/07/29 01:32:51;;;;;;;12.70;10.67;;;;;;;;;;5052752;28;20299;-88
2023/07/29 01:35:29;;;;;;;13.27;10.47;;;;;;;;;;5052586;28;20176;-88
2023/07/29 01:38:00;;;;;;;13.37;10.00;;;;;;;;;;5052736;28;20175;-89
2023/07/29 01:40:35;;;;;;;11.40;10.03;;;;;;;;;;5052475;28;20171;-89
2023/07/29 01:43:12;;;;;;;;;;;;;;;;;;;;;
2023/07/29 01:45:39;;;;;;;11.07;9.80;;;;;;;;;;5053740;28;20179;-89
2023/07/29 01:48:11;;;;;;;10.67;9.57;;;;;;;;;;5052559;28;20176;-88
2023/07/29 01:50:37;;;;;;;11.30;10.10;;;;;;;;;;5053123;28;20195;-88
2023/07/29 01:53:03;;;;;;;12.13;10.00;;;;;;;;;;5052241;28;20204;-89
2023/07/29 01:55:32;;;;;;;11.93;10.73;;;;;;;;;;5052596;28;20196;-88
2023/07/29 01:57:58;;;;;;;11.83;9.60;;;;;;;;;;5037535;28;20183;-88
2023/07/29 02:00:24;;;;;;;10.10;9.00;;;;;;;;;;5052371;28;20252;-88
2023/07/29 02:02:53;;;;;;;11.40;8.83;;;;;;;;;;5052671;28;20184;-88
2023/07/29 02:05:19;;;;;;;9.37;8.43;;;;;;;;;;5036285;28;20184;-89
2023/07/29 02:07:45;;;;;;;9.23;8.33;;;;;;;;;;5052424;28;20180;-89
2023/07/29 02:10:17;;;;;;;8.57;7.83;;;;;;;;;;5052359;28;20188;-89
2023/07/29 02:13:05;;;;;;;8.90;8.00;;;;;;;;;;5052297;28;20204;-88
2023/07/29 02:15:39;;;;;;;8.90;8.00;;;;;;;;;;5052014;28;20176;-88
2023/07/29 02:18:12;;;;;;;9.23;7.90;;;;;;;;;;5035146;28;20191;-88
2023/07/29 02:20:38;;;;;;;9.37;8.37;;;;;;;;;;5052272;28;20184;-88
2023/07/29 02:23:07;;;;;;;11.87;7.83;;;;;;;;;;5052256;28;20315;-89
2023/07/29 02:25:36;;;;;;;9.10;8.20;;;;;;;;;;5052370;28;20263;-88
2023/07/29 02:28:06;;;;;;;8.10;7.37;;;;;;;;;;5051829;28;20204;-88
2023/07/29 02:30:44;;;;;;;;;;;;;;;;;;;;;
2023/07/29 02:33:13;;;;;;;9.03;8.23;;;;;;;;;;5053220;28;20222;-88
2023/07/29 02:35:39;;;;;;;9.07;8.17;;;;;;;;;;5055046;28;20254;-88
2023/07/29 02:38:13;;;;;;;10.10;9.10;;;;;;;;;;5055866;28;20172;-88
2023/07/29 02:40:44;;;;;;;10.20;8.60;;;;;;;;;;5056056;28;20176;-88
2023/07/29 02:43:10;;;;;;;9.87;8.87;;;;;;;;;;5040181;28;20216;-89
2023/07/29 02:45:42;;;;;;;11.27;9.23;;;;;;;;;;5036328;28;20271;-88
2023/07/29 02:48:08;;;;;;;13.07;10.73;;;;;;;;;;5036643;28;20180;-88
2023/07/29 02:50:43;;;;;;;13.83;11.50;;;;;;;;;;5056085;28;20275;-88
2023/07/29 02:53:09;;;;;;;13.37;11.40;;;;;;;;;;5056000;28;20207;-89
2023/07/29 02:55:36;;;;;;;14.90;13.27;;;;;;;;;;5055749;28;20199;-89
2023/07/29 02:58:11;;;;;;;13.77;12.20;;;;;;;;;;5055789;28;20247;-90
2023/07/29 03:00:41;;;;;;;16.53;14.00;;;;;;;;;;5035848;28;20176;-88
2023/07/29 03:03:08;;;;;;;17.83;13.47;;;;;;;;;;5047216;28;20202;-89
2023/07/29 03:05:38;;;;;;;14.37;12.83;;;;;;;;;;5055748;28;20172;-88
2023/07/29 03:08:07;;;;;;;15.40;12.33;;;;;;;;;;5056164;28;20176;-88
2023/07/29 03:10:36;;;;;;;17.63;12.43;;;;;;;;;;5055997;28;20242;-89
2023/07/29 03:13:03;;;;;;;16.67;12.43;;;;;;;;;;5055406;28;20207;-88
2023/07/29 03:15:29;;;;;;;13.70;12.30;;;;;;;;;;5055374;28;20175;-88
2023/07/29 03:17:58;;;;;;;12.73;11.43;;;;;;;;;;5055591;28;20180;-88
2023/07/29 03:20:24;;;;;;;13.10;10.90;;;;;;;;;;5055166;28;20180;-89
2023/07/29 03:22:50;;;;;;;13.90;11.23;;;;;;;;;;5055487;28;20184;-89
2023/07/29 03:25:22;;;;;;;12.63;11.33;;;;;;;;;;5055324;28;20179;-88
2023/07/29 03:27:49;;;;;;;12.63;11.13;;;;;;;;;;5055115;28;20195;-88
2023/07/29 03:30:25;;;;;;;12.43;11.13;;;;;;;;;;5038931;28;20184;-88
2023/07/29 03:32:54;;;;;;;12.43;10.47;;;;;;;;;;5055322;28;20208;-88
2023/07/29 03:38:15;;;;;;;11.23;10.03;;;;;;;;;;5056007;28;20184;-88
2023/07/29 03:40:45;;;;;;;9.60;8.70;;;;;;;;;;5055292;28;20184;-89
2023/07/29 03:43:20;;;;;;;10.07;8.73;;;;;;;;;;5055252;28;20188;-88
2023/07/29 03:45:46;;;;;;;11.57;8.87;;;;;;;;;;5054506;28;20243;-89
2023/07/29 03:48:19;;;;;;;10.50;8.93;;;;;;;;;;5054523;28;20184;-88
2023/07/29 03:50:49;;;;;;;10.50;8.03;;;;;;;;;;5044552;28;20188;-88
2023/07/29 03:53:17;;;;;;;7.93;7.13;;;;;;;;;;5054628;28;20243;-89
2023/07/29 03:55:46;;;;;;;8.33;7.43;;;;;;;;;;5034757;28;20189;-88
2023/07/29 03:58:18;;;;;;;9.70;7.63;;;;;;;;;;5049335;28;20192;-88
2023/07/29 04:00:46;;;;;;;7.97;7.03;;;;;;;;;;5054653;28;20180;-89
2023/07/29 04:03:22;;;;;;;7.93;6.83;;;;;;;;;;5038132;28;20282;-88
2023/07/29 04:05:56;;;;;;;10.03;6.60;;;;;;;;;;5037985;28;20187;-89
2023/07/29 04:08:25;;;;;;;8.40;6.97;;;;;;;;;;5049683;28;20267;-88
2023/07/29 04:10:51;;;;;;;8.60;7.30;;;;;;;;;;5036144;28;20283;-87
2023/07/29 04:13:24;;;;;;;8.40;6.40;;;;;;;;;;5054225;28;20349;-88
2023/07/29 04:15:59;;;;;;;7.90;6.50;;;;;;;;;;5034424;28;20224;-88
2023/07/29 04:18:33;;;;;;;7.40;5.90;;;;;;;;;;5051868;28;20211;-87
2023/07/29 04:21:05;;;;;;;8.60;5.80;;;;;;;;;;5054457;28;20208;-88
2023/07/29 04:23:31;;;;;;;9.13;5.80;;;;;;;;;;5054027;28;20184;-88
2023/07/29 04:25:57;;;;;;;9.20;5.80;;;;;;;;;;5054684;28;20203;-88
2023/07/29 04:28:26;;;;;;;10.23;5.60;;;;;;;;;;5054143;28;20222;-88
2023/07/29 04:30:52;;;;;;;7.07;5.40;;;;;;;;;;5054181;28;20267;-88
2023/07/29 04:33:18;;;;;;;7.90;5.70;;;;;;;;;;5053904;28;20311;-88
2023/07/29 04:35:47;;;;;;;6.50;4.50;;;;;;;;;;5053922;28;20207;-87
2023/07/29 04:38:13;;;;;;;5.97;4.70;;;;;;;;;;5037611;28;20242;-88
2023/07/29 04:40:49;;;;;;;8.13;5.33;;;;;;;;;;5069649;28;20179;-88
2023/07/29 04:43:15;;;;;;;6.07;4.70;;;;;;;;;;5053601;28;20184;-88
2023/07/29 04:45:45;;;;;;;7.10;4.60;;;;;;;;;;5053905;28;20184;-89
2023/07/29 04:48:14;;;;;;;7.40;4.23;;;;;;;;;;5037285;28;20241;-88
2023/07/29 04:50:40;;;;;;;4.93;4.10;;;;;;;;;;5053105;28;20184;-88
2023/07/29 04:53:09;;;;;;;5.43;4.53;;;;;;;;;;5051373;28;20261;-88
2023/07/29 04:55:35;;;;;;;5.97;4.40;;;;;;;;;;5050644;28;20184;-89
2023/07/29 04:58:01;;;;;;;5.27;3.93;;;;;;;;;;5049687;28;20184;-88
2023/07/29 05:00:33;;;;;;;7.30;4.33;;;;;;;;;;5051148;28;20238;-87
2023/07/29 05:03:05;;;;;;;4.80;4.17;;;;;;;;;;5050954;28;20183;-89
2023/07/29 05:05:33;;;;;;;5.70;4.00;;;;;;;;;;5050826;28;20211;-88
2023/07/29 05:07:59;;;;;;;6.20;4.07;;;;;;;;;;5048252;28;20209;-88
2023/07/29 05:10:28;;;;;;;5.40;4.00;;;;;;;;;;5050479;28;20180;-87
2023/07/29 05:12:57;;;;;;;6.43;3.53;;;;;;;;;;5050696;28;20207;-87
2023/07/29 05:15:28;;;;;;;4.90;3.90;;;;;;;;;;5050887;28;20492;-88
2023/07/29 05:18:03;;;;;;;4.43;3.57;;;;;;;;;;5050062;28;20215;-88
2023/07/29 05:20:29;;;;;;;4.27;3.87;;;;;;;;;;5033016;28;20176;-88
2023/07/29 05:23:00;;;;;;;4.63;4.10;;;;;;;;;;5050349;28;20179;-88
2023/07/29 05:25:26;;;;;;;3.77;3.33;;;;;;;;;;5050401;28;20184;-87
2023/07/29 05:30:50;;;;;;;7.57;3.77;;;;;;;;;;5047035;28;20244;-88
2023/07/29 05:33:16;;;;;;;4.53;3.67;;;;;;;;;;5050314;28;20207;-88
2023/07/29 05:35:51;;;;;;;3.87;3.40;;;;;;;;;;5049245;28;20176;-88
2023/07/29 05:38:22;;;;;;;5.43;3.40;;;;;;;;;;5048343;28;20179;-87
2023/07/29 05:40:49;;;;;;;4.20;3.80;;;;;;;;;;5050422;28;20176;-88
2023/07/29 05:43:17;;;;;;;4.97;3.70;;;;;;;;;;5050096;28;20222;-87
2023/07/29 05:45:46;;;;;;;6.43;4.03;;;;;;;;;;5034330;28;20222;-88
2023/07/29 05:48:14;;;;;;;5.17;3.50;;;;;;;;;;5050203;28;20188;-88
2023/07/29 05:50:50;;;;;;;;;;;;;;;;;;;;;
2023/07/29 05:53:20;;;;;;;6.17;4.30;;;;;;;;;;5048767;28;20217;-89
2023/07/29 05:56:16;;;;;;;5.20;3.83;;;;;;;;;;5050196;28;20168;-87
2023/07/29 05:58:39;;;;;;;6.33;4.13;;;;;;;;;;5047073;28;20259;-89
2023/07/29 06:01:09;;;;;;;5.90;4.40;;;;;;;;;;5050357;28;20180;-88
2023/07/29 06:03:37;;;;;;;6.77;4.90;;;;;;;;;;5026094;28;20211;-87
2023/07/29 06:06:03;;;;;;;5.37;4.37;;;;;;;;;;5050598;28;20171;-89
2023/07/29 06:08:37;;;;;;;6.43;4.80;;;;;;;;;;5052375;28;20183;-89
2023/07/29 06:11:09;;;;;;;7.40;4.93;;;;;;;;;;5051907;28;20176;-89
2023/07/29 06:13:35;;;;;;;5.70;5.10;;;;;;;;;;5052445;28;20183;-88
2023/07/29 06:18:47;;;;;;;6.43;5.20;;;;;;;;;;5051136;28;20232;-88
2023/07/29 06:21:16;;;;;;;6.37;5.27;;;;;;;;;;5049651;28;20168;-90
2023/07/29 06:23:49;;;;;;;7.83;5.50;;;;;;;;;;5051015;28;20187;-90
2023/07/29 06:26:25;;;;;;;7.00;5.37;;;;;;;;;;5050386;28;20188;-92
2023/07/29 06:29:20;;;;;;;7.50;5.67;;;;;;;;;;5050355;28;20195;-90
2023/07/29 06:31:58;;;;;;;9.87;5.93;;;;;;;;;;5046593;28;20203;-94
2023/07/29 06:41:06;;;;;;;;;;;;;;;;;;;;;
2023/07/29 06:43:41;;;;;;;7.93;6.10;;;;;;;;;;5053790;28;20176;-89
2023/07/29 06:46:18;;;;;;;9.70;6.23;;;;;;;;;;5052445;28;20184;-91
2023/07/29 06:51:42;;;;;;;7.27;5.80;;;;;;;;;;5054141;28;20241;-91
2023/07/29 06:54:11;;;;;;;7.23;6.37;;;;;;;;;;5052508;28;20183;-92
2023/07/29 07:00:09;;;;;;;;;;;;;;;;;;;;;
2023/07/29 07:03:09;;;;;;;;;;;;;;;;;;;;;
2023/07/29 07:17:56;;;;;;;8.97;6.10;;;;;;;;;;5031329;28;20264;-89
2023/07/29 07:20:27;;;;;;;7.80;6.03;;;;;;;;;;5042483;28;20234;-92
2023/07/29 07:22:54;;;;;;;7.37;5.70;;;;;;;;;;5055847;28;20172;-92
2023/07/29 07:25:20;;;;;;;6.57;5.70;;;;;;;;;;5054577;28;20180;-87
2023/07/29 07:27:48;;;;;;;7.07;6.17;;;;;;;;;;5049487;28;20207;-87
2023/07/29 07:30:17;;;;;;;7.90;6.47;;;;;;;;;;5048201;28;20258;-90
2023/07/29 07:32:43;;;;;;;6.87;6.17;;;;;;;;;;5050132;28;20222;-89
2023/07/29 07:35:15;;;;;;;7.40;6.70;;;;;;;;;;5054124;28;20218;-89
2023/07/29 07:37:47;;;;;;;7.50;6.70;;;;;;;;;;5030959;28;20250;-91
2023/07/29 07:40:16;;;;;;;8.80;7.63;;;;;;;;;;5035424;28;20181;-89
2023/07/29 07:43:02;;;;;;;8.63;6.60;;;;;;;;;;5050991;28;20278;-89
2023/07/29 07:45:31;;;;;;;8.10;7.30;;;;;;;;;;5020299;28;20180;-88
2023/07/29 07:47:57;;;;;;;9.77;7.70;;;;;;;;;;5047394;28;20180;-90
2023/07/29 07:50:34;;;;;;;9.47;7.10;;;;;;;;;;5049879;28;20184;-91
2023/07/29 07:53:00;;;;;;;8.70;7.80;;;;;;;;;;5055552;28;20214;-88
2023/07/29 07:55:29;;;;;;;10.07;8.20;;;;;;;;;;5049113;28;20183;-86
2023/07/29 07:57:55;;;;;;;12.33;7.97;;;;;;;;;;5035181;28;20192;-86
2023/07/29 08:00:21;;;;;;;9.07;7.03;;;;;;;;;;5035044;28;20203;-88
2023/07/29 08:02:47;;;;;;;8.73;7.23;;;;;;;;;;5035369;28;20185;-91
2023/07/29 08:05:19;;;;;;;7.53;6.90;;;;;;;;;;5039262;28;20255;-89
2023/07/29 08:07:45;;;;;;;8.33;7.47;;;;;;;;;;5054806;28;20179;-88
2023/07/29 08:10:15;;;;;;;8.23;6.67;;;;;;;;;;5054926;28;20185;-89
2023/07/29 08:12:44;;;;;;;7.47;6.77;;;;;;;;;;5054664;28;20218;-87
2023/07/29 08:15:15;;;;;;;9.73;7.07;;;;;;;;;;5054918;28;20262;-90
2023/07/29 08:17:41;;;;;;;7.10;6.40;;;;;;;;;;5054141;28;20220;-88
2023/07/29 08:20:10;;;;;;;6.80;6.10;;;;;;;;;;5054808;28;20180;-88
2023/07/29 08:22:39;;;;;;;5.93;5.30;;;;;;;;;;5055066;28;20236;-89
2023/07/29 08:25:05;;;;;;;8.77;5.20;;;;;;;;;;5054544;28;20177;-86
2023/07/29 08:27:40;;;;;;;6.70;4.67;;;;;;;;;;5038140;28;20208;-87
2023/07/29 08:30:19;;;;;;;;;;;;;;;;;;;;;
2023/07/29 08:32:50;;;;;;;5.30;4.80;;;;;;;;;;5039174;28;20220;-87
2023/07/29 08:35:19;;;;;;;7.87;4.80;;;;;;;;;;5034274;28;20181;-85
2023/07/29 08:37:48;;;;;;;6.15;5.00;;;;;;;;;;5034225;28;20409;-85
2023/07/29 08:40:17;;;;;;;5.83;4.50;;;;;;;;;;5038195;28;20187;-86
2023/07/29 08:42:51;;;;;;;5.40;4.93;;;;;;;;;;5054148;28;20172;-85
2023/07/29 08:45:17;;;;;;;4.97;4.57;;;;;;;;;;5054463;28;20183;-84
2023/07/29 08:47:43;;;;;;;6.33;4.60;;;;;;;;;;5054444;28;20195;-84
2023/07/29 08:50:10;;;;;;;7.43;4.93;;;;;;;;;;5054429;28;20176;-84
2023/07/29 08:52:42;;;;;;;4.77;4.33;;;;;;;;;;5052697;28;20218;-85
2023/07/29 08:55:08;;;;;;;5.63;4.47;;;;;;;;;;5054303;28;20180;-86
2023/07/29 08:57:37;;;;;;;5.00;3.90;;;;;;;;;;5053923;28;20187;-85
2023/07/29 09:00:03;;;;;;;4.33;3.57;;;;;;;;;;5054079;28;20203;-85
2023/07/29 09:02:35;;;;;;;4.43;3.40;;;;;;;;;;5034170;28;20275;-85
2023/07/29 09:05:02;;;;;;;4.13;3.73;;;;;;;;;;5034225;28;20181;-85
2023/07/29 09:07:29;;;;;;;6.77;4.00;;;;;;;;;;5034365;28;20180;-85
2023/07/29 09:09:58;;;;;;;4.50;3.47;;;;;;;;;;5034328;28;20181;-85
2023/07/29 09:12:24;;;;;;;4.67;3.50;;;;;;;;;;5033739;28;20249;-86
2023/07/29 09:14:55;;;;;;;3.40;3.10;;;;;;;;;;5034367;28;20186;-85
2023/07/29 09:17:22;;;;;;;3.50;3.10;;;;;;;;;;5017953;28;20224;-87
2023/07/29 09:19:49;;;;;;;4.33;3.00;;;;;;;;;;5033762;28;20184;-87
2023/07/29 09:22:19;;;;;;;3.77;2.90;;;;;;;;;;5033984;28;20181;-85
2023/07/29 09:24:45;;;;;;;3.40;3.10;;;;;;;;;;5033936;28;20184;-85
2023/07/29 09:27:23;;;;;;;4.43;3.00;;;;;;;;;;5034115;28;20187;-86
2023/07/29 09:29:52;;;;;;;4.63;2.93;;;;;;;;;;5033875;28;20208;-85
2023/07/29 09:32:20;;;;;;;3.57;2.90;;;;;;;;;;5033058;28;20255;-84
2023/07/29 09:34:46;;;;;;;5.53;3.50;;;;;;;;;;5033430;28;20267;-86
2023/07/29 09:37:25;;;;;;;4.57;3.30;;;;;;;;;;5033255;28;20181;-85
2023/07/29 09:39:51;;;;;;;4.33;2.80;;;;;;;;;;5047310;28;20180;-84
2023/07/29 09:42:23;;;;;;;2.90;2.60;;;;;;;;;;5033305;28;20211;-85
2023/07/29 09:44:51;;;;;;;5.27;3.00;;;;;;;;;;5033246;28;20227;-85
2023/07/29 09:47:23;;;;;;;4.27;2.60;;;;;;;;;;5033256;28;20252;-85
2023/07/29 09:49:50;;;;;;;2.77;2.57;;;;;;;;;;5033334;28;20181;-85
2023/07/29 09:52:22;;;;;;;5.07;2.60;;;;;;;;;;5033549;28;20208;-85
2023/07/29 09:54:48;;;;;;;4.23;2.43;;;;;;;;;;5033002;28;20187;-85
2023/07/29 09:57:15;;;;;;;6.63;2.57;;;;;;;;;;5034531;28;20181;-85
2023/07/29 09:59:54;;;;;;;3.73;3.17;;;;;;;;;;5033044;28;20177;-86
2023/07/29 10:02:21;;;;;;;3.43;2.63;;;;;;;;;;5033674;28;20187;-85
2023/07/29 10:04:47;;;;;;;3.33;2.80;;;;;;;;;;5017184;28;20180;-85
2023/07/29 10:07:16;;;;;;;3.43;3.10;;;;;;;;;;5033176;28;20180;-84
2023/07/29 10:09:42;;;;;;;3.53;3.10;;;;;;;;;;5033155;28;20173;-86
2023/07/29 10:12:10;;;;;;;3.00;2.70;;;;;;;;;;5033032;28;20204;-86
2023/07/29 10:14:37;;;;;;;4.10;2.83;;;;;;;;;;5033305;28;20207;-85
2023/07/29 10:17:04;;;;;;;3.17;2.70;;;;;;;;;;5032993;28;20224;-85
2023/07/29 10:19:31;;;;;;;4.57;2.73;;;;;;;;;;5016827;28;20180;-85
2023/07/29 10:22:00;;;;;;;4.05;2.53;;;;;;;;;;5016739;28;20192;-85
2023/07/29 10:24:30;;;;;;;3.90;2.10;;;;;;;;;;5033114;28;20248;-85
2023/07/29 10:27:00;;;;;;;3.13;2.27;;;;;;;;;;5033168;28;20176;-86
2023/07/29 10:29:29;;;;;;;3.10;2.33;;;;;;;;;;5016210;28;20274;-86
2023/07/29 10:31:58;;;;;;;5.43;2.30;;;;;;;;;;5032795;28;20208;-85
2023/07/29 10:34:24;;;;;;;2.70;2.10;;;;;;;;;;5040757;28;20168;-88
2023/07/29 10:36:52;;;;;;;3.42;2.40;;;;;;;;;;5033861;28;20470;-85
2023/07/29 10:39:18;;;;;;;2.20;2.00;;;;;;;;;;5052135;28;20200;-84
2023/07/29 10:42:00;;;;;;;2.75;2.08;;;;;;;;;;5034688;28;20180;-85
2023/07/29 10:44:49;;;;;;;3.65;2.47;;;;;;;;;;5052149;28;20203;-85
2023/07/29 10:47:18;;;;;;;2.90;2.60;;;;;;;;;;5052511;28;20225;-86
2023/07/29 10:49:47;;;;;;;4.13;2.95;;;;;;;;;;5052217;28;20205;-85
2023/07/29 10:52:16;;;;;;;4.82;3.00;;;;;;;;;;5052321;28;20210;-86
2023/07/29 10:54:46;;;;;;;3.92;3.03;;;;;;;;;;5052579;28;20192;-86
2023/07/29 10:57:16;;;;;;;4.22;3.80;;;;;;;;;;5054578;28;20172;-86
2023/07/29 10:59:54;;;;;;;4.18;3.40;;;;;;;;;;5056363;28;20168;-85
2023/07/29 11:02:20;;;;;;;3.88;3.58;;;;;;;;;;5055993;28;20176;-86
2023/07/29 11:04:53;;;;;;;3.45;3.15;;;;;;;;;;5055981;28;20184;-87
2023/07/29 11:07:23;;;;;;;4.13;2.83;;;;;;;;;;5056689;28;20180;-86
2023/07/29 11:09:49;;;;;;;3.75;3.05;;;;;;;;;;5054346;28;20168;-85
2023/07/29 11:12:34;;;;;;;2.88;2.67;;;;;;;;;;5036748;28;20235;-85
2023/07/29 11:15:09;;;;;;;5.55;3.20;;;;;;;;;;5046865;28;20239;-85
2023/07/29 11:17:36;;;;;;;3.05;2.85;;;;;;;;;;5055814;28;20219;-85
2023/07/29 11:20:03;;;;;;;4.22;2.95;;;;;;;;;;5056270;28;20203;-85
2023/07/29 11:22:31;;;;;;;4.95;2.90;;;;;;;;;;5055768;28;20203;-86
2023/07/29 11:24:57;;;;;;;3.30;2.72;;;;;;;;;;5040028;28;20226;-85
2023/07/29 11:27:23;;;;;;;2.78;2.58;;;;;;;;;;5055459;28;20196;-86
2023/07/29 11:29:49;;;;;;;3.85;2.83;;;;;;;;;;5055749;28;20186;-87
2023/07/29 11:32:18;;;;;;;4.32;2.55;;;;;;;;;;5038944;28;20306;-86
2023/07/29 11:34:44;;;;;;;4.00;2.50;;;;;;;;;;5055906;28;20213;-84
2023/07/29 11:37:11;;;;;;;6.25;2.80;;;;;;;;;;5039158;28;20184;-84
2023/07/29 11:39:41;;;;;;;4.40;2.38;;;;;;;;;;5054431;28;20188;-85
2023/07/29 11:42:07;;;;;;;3.78;2.20;;;;;;;;;;5055466;28;20172;-85
2023/07/29 11:44:33;;;;;;;3.42;2.40;;;;;;;;;;5038634;28;20184;-85
2023/07/29 11:47:02;;;;;;;2.40;2.20;;;;;;;;;;5055012;28;20180;-84
2023/07/29 11:49:28;;;;;;;4.00;2.70;;;;;;;;;;5038681;28;20176;-85
2023/07/29 11:52:01;;;;;;;3.88;2.75;;;;;;;;;;5054937;28;20242;-85
2023/07/29 11:54:28;;;;;;;3.20;2.58;;;;;;;;;;5053210;28;20482;-86
2023/07/29 11:56:54;;;;;;;6.85;2.83;;;;;;;;;;5055036;28;20183;-87
2023/07/29 11:59:22;;;;;;;3.28;2.47;;;;;;;;;;5051919;28;20180;-86
2023/07/29 12:01:48;;;;;;;3.90;2.70;;;;;;;;;;5033444;28;20260;-85
2023/07/29 12:04:15;;;;;;;5.03;2.80;;;;;;;;;;5035000;28;20252;-87
2023/07/29 12:06:43;;;;;;;3.42;2.70;;;;;;;;;;5018123;28;20196;-86
2023/07/29 12:09:09;;;;;;;2.88;2.35;;;;;;;;;;5018875;28;20176;-85
2023/07/29 12:11:36;;;;;;;2.50;2.30;;;;;;;;;;5034286;28;20181;-86
2023/07/29 12:14:02;;;;;;;2.97;2.40;;;;;;;;;;5035033;28;20200;-86
2023/07/29 12:16:34;;;;;;;2.85;2.22;;;;;;;;;;5018871;28;20184;-86
2023/07/29 12:19:01;;;;;;;2.28;2.08;;;;;;;;;;5019596;28;20196;-86
2023/07/29 12:21:27;;;;;;;3.28;2.03;;;;;;;;;;5035145;28;20180;-86
2023/07/29 12:23:53;;;;;;;3.97;2.15;;;;;;;;;;5035114;28;20234;-85
2023/07/29 12:26:27;;;;;;;6.90;2.50;;;;;;;;;;5037010;28;20187;-86
2023/07/29 12:28:53;;;;;;;5.15;2.22;;;;;;;;;;5053842;28;20214;-86
2023/07/29 12:31:19;;;;;;;5.53;2.67;;;;;;;;;;5027694;28;20262;-86
2023/07/29 12:33:47;;;;;;;10.30;2.97;;;;;;;;;;5034484;28;20212;-86
2023/07/29 12:36:14;;;;;;;4.00;2.20;;;;;;;;;;5034421;28;20180;-85
2023/07/29 12:38:44;;;;;;;2.40;1.83;;;;;;;;;;5034815;28;20180;-85
2023/07/29 12:41:10;;;;;;;3.27;2.00;;;;;;;;;;5035196;28;20204;-85
2023/07/29 12:43:36;;;;;;;4.73;2.00;;;;;;;;;;5034820;28;20184;-85
2023/07/29 12:46:02;;;;;;;11.80;4.20;;;;;;;;;;5049735;28;20176;-85
2023/07/29 12:48:28;;;;;;;7.67;2.77;;;;;;;;;;5047333;28;20257;-86
2023/07/29 12:50:56;;;;;;;1.70;1.60;;;;;;;;;;5054213;28;20280;-86
2023/07/29 12:53:22;;;;;;;8.30;2.67;;;;;;;;;;5053826;28;20318;-85
2023/07/29 12:55:48;;;;;;;3.80;2.00;;;;;;;;;;5029216;28;20188;-85
2023/07/29 12:58:17;;;;;;;2.53;1.87;;;;;;;;;;5045527;28;20184;-86
2023/07/29 13:00:43;;;;;;;3.90;2.10;;;;;;;;;;5054177;28;20219;-84
2023/07/29 13:03:09;;;;;;;1.97;1.77;;;;;;;;;;5053716;28;20188;-84
2023/07/29 13:05:35;;;;;;;4.13;1.60;;;;;;;;;;5037830;28;20176;-84
2023/07/29 13:08:04;;;;;;;1.95;1.70;;;;;;;;;;5054251;28;20183;-86
2023/07/29 13:10:30;;;;;;;2.50;2.00;;;;;;;;;;5037687;28;20188;-86
2023/07/29 13:12:56;;;;;;;2.67;1.73;;;;;;;;;;5054045;28;20291;-86
2023/07/29 13:15:23;;;;;;;3.43;1.87;;;;;;;;;;5037519;28;20222;-85
2023/07/29 13:17:49;;;;;;;3.20;2.47;;;;;;;;;;5053531;28;20228;-85
2023/07/29 13:20:15;;;;;;;3.33;2.72;;;;;;;;;;5053084;28;20184;-85
2023/07/29 13:22:41;;;;;;;3.23;2.93;;;;;;;;;;5053501;28;20175;-85
2023/07/29 13:25:10;;;;;;;3.72;3.10;;;;;;;;;;5053465;28;20183;-85
2023/07/29 13:27:36;;;;;;;3.20;2.90;;;;;;;;;;5053202;28;20204;-86
2023/07/29 13:30:02;;;;;;;3.53;2.92;;;;;;;;;;5035244;28;20191;-85
2023/07/29 13:32:28;;;;;;;3.10;2.90;;;;;;;;;;5033458;28;20216;-86
2023/07/29 13:34:56;;;;;;;2.78;2.55;;;;;;;;;;5016825;28;20184;-86
2023/07/29 13:37:22;;;;;;;3.63;3.20;;;;;;;;;;5016987;28;20184;-87
2023/07/29 13:39:49;;;;;;;4.20;3.70;;;;;;;;;;5033316;28;20185;-86
2023/07/29 13:42:17;;;;;;;3.65;3.35;;;;;;;;;;5033056;28;20298;-87
2023/07/29 13:44:43;;;;;;;4.10;3.00;;;;;;;;;;5032883;28;20191;-86
2023/07/29 13:47:09;;;;;;;3.00;2.80;;;;;;;;;;5033149;28;20181;-86
2023/07/29 13:49:35;;;;;;;3.13;2.87;;;;;;;;;;5031775;28;20184;-86
2023/07/29 13:52:04;;;;;;;2.83;2.63;;;;;;;;;;5052939;28;20208;-86
2023/07/29 13:54:34;;;;;;;3.53;3.20;;;;;;;;;;5052924;28;20175;-87
2023/07/29 13:57:02;;;;;;;3.40;3.10;;;;;;;;;;5052839;28;20183;-87
2023/07/29 13:59:28;;;;;;;3.92;2.97;;;;;;;;;;5053016;28;20180;-87
2023/07/29 14:01:54;;;;;;;3.53;3.22;;;;;;;;;;5052978;28;20179;-87
2023/07/29 14:04:23;;;;;;;3.70;2.80;;;;;;;;;;5052784;28;20184;-87
2023/07/29 14:06:49;;;;;;;2.60;2.40;;;;;;;;;;5051270;28;20180;-87
2023/07/29 14:09:15;;;;;;;2.67;2.35;;;;;;;;;;5052437;28;20176;-86
2023/07/29 14:11:41;;;;;;;2.90;2.40;;;;;;;;;;5052245;28;20412;-86
2023/07/29 14:14:10;;;;;;;2.63;2.42;;;;;;;;;;5036373;28;20203;-86
2023/07/29 14:16:36;;;;;;;2.92;2.70;;;;;;;;;;5052735;28;20172;-85
2023/07/29 14:19:02;;;;;;;3.42;2.50;;;;;;;;;;5052497;28;20219;-87
2023/07/29 14:21:31;;;;;;;2.67;2.47;;;;;;;;;;5051624;28;20188;-86
2023/07/29 14:23:57;;;;;;;3.05;2.50;;;;;;;;;;5052718;28;20176;-87
2023/07/29 14:26:23;;;;;;;3.42;2.30;;;;;;;;;;5035874;28;20240;-87
2023/07/29 14:28:52;;;;;;;2.60;2.40;;;;;;;;;;5052955;28;20204;-85
2023/07/29 14:31:18;;;;;;;3.60;2.45;;;;;;;;;;5054315;28;20275;-85
2023/07/29 14:33:44;;;;;;;2.40;2.20;;;;;;;;;;5055945;28;20215;-84
2023/07/29 14:36:10;;;;;;;3.63;2.63;;;;;;;;;;5056223;28;20180;-85
2023/07/29 14:38:39;;;;;;;3.25;2.63;;;;;;;;;;5056541;28;20176;-84
2023/07/29 14:41:05;;;;;;;3.22;2.90;;;;;;;;;;5056401;28;20186;-84
2023/07/29 14:43:31;;;;;;;3.35;3.05;;;;;;;;;;5056661;28;20211;-85
2023/07/29 14:46:00;;;;;;;2.65;2.45;;;;;;;;;;5056649;28;20180;-84
2023/07/29 14:48:26;;;;;;;3.25;2.95;;;;;;;;;;5057059;28;20180;-85
2023/07/29 14:50:52;;;;;;;3.05;2.85;;;;;;;;;;5056726;28;20262;-84
2023/07/29 14:53:18;;;;;;;3.58;3.08;;;;;;;;;;5056656;28;20207;-85
2023/07/29 14:55:47;;;;;;;3.58;3.25;;;;;;;;;;5056247;28;20172;-85
2023/07/29 14:58:13;;;;;;;3.85;2.75;;;;;;;;;;5037191;28;20204;-85
2023/07/29 15:00:39;;;;;;;3.17;2.90;;;;;;;;;;5036310;28;20234;-84
2023/07/29 15:03:07;;;;;;;3.58;2.80;;;;;;;;;;5036332;28;20177;-84
2023/07/29 15:05:34;;;;;;;3.90;2.97;;;;;;;;;;5019912;28;20215;-84
2023/07/29 15:08:00;;;;;;;3.00;2.80;;;;;;;;;;5036402;28;20200;-84
2023/07/29 15:10:28;;;;;;;3.33;3.00;;;;;;;;;;5019574;28;20189;-84
2023/07/29 15:12:54;;;;;;;2.83;2.63;;;;;;;;;;5036168;28;20208;-84
2023/07/29 15:15:20;;;;;;;3.72;2.88;;;;;;;;;;5036495;28;20271;-83
2023/07/29 15:17:46;;;;;;;3.00;2.80;;;;;;;;;;5055718;28;20184;-83
2023/07/29 15:20:15;;;;;;;3.38;3.10;;;;;;;;;;5055841;28;20180;-83
2023/07/29 15:22:41;;;;;;;3.20;2.90;;;;;;;;;;5055381;28;20180;-84
2023/07/29 15:25:09;;;;;;;2.90;2.70;;;;;;;;;;5055799;28;20206;-83
2023/07/29 15:27:37;;;;;;;4.07;2.83;;;;;;;;;;5055757;28;20287;-83
2023/07/29 15:30:04;;;;;;;4.72;2.80;;;;;;;;;;5055857;28;20266;-84
2023/07/29 15:32:30;;;;;;;3.75;2.55;;;;;;;;;;5055460;28;20230;-83